Time;durP1;ratioP1;P1;durP2;ratioP2;P2;SDS_P1;SDS_P2;PMS_P1;PMS_P2;Temp;Humidity;BMP_temperature;BMP_pressure;BME280_temperature;BME280_humidity;BME280_pressure;Samples;Min_cycle;Max_cycle;Signal;HPM_P1;HPM_P2
2022/03/23 00:00:43;;;;;;;6.65;6.15;;;21.70;43.60;;;;;;5145024;27;43467;-63
2022/03/23 00:03:13;;;;;;;6.65;6.15;;;21.80;43.80;;;;;;5144755;27;43430;-62
2022/03/23 00:05:43;;;;;;;6.50;5.88;;;21.80;43.80;;;;;;5144029;27;43870;-63
2022/03/23 00:08:11;;;;;;;5.95;5.40;;;21.70;43.70;;;;;;5145659;27;43531;-62
2022/03/23 00:10:38;;;;;;;6.90;6.28;;;21.70;43.70;;;;;;5144476;27;43492;-62
2022/03/23 00:13:06;;;;;;;6.50;5.82;;;21.70;43.80;;;;;;5145090;27;43495;-62
2022/03/23 00:15:33;;;;;;;6.55;6.05;;;21.70;43.70;;;;;;5144471;27;43816;-62
2022/03/23 00:18:01;;;;;;;7.35;6.65;;;21.70;44.30;;;;;;5144676;27;43991;-62
2022/03/23 00:20:28;;;;;;;6.32;5.82;;;21.70;43.60;;;;;;5145328;27;43482;-63
2022/03/23 00:22:56;;;;;;;6.50;5.90;;;21.70;43.70;;;;;;5144636;27;43519;-63
2022/03/23 00:25:23;;;;;;;6.80;6.20;;;21.60;43.80;;;;;;5144146;27;45134;-62
2022/03/23 00:27:51;;;;;;;6.80;6.05;;;21.70;43.80;;;;;;5142913;27;43992;-62
2022/03/23 00:30:18;;;;;;;7.00;6.40;;;21.60;43.60;;;;;;5144277;27;43547;-63
2022/03/23 00:32:46;;;;;;;6.85;6.22;;;21.60;43.70;;;;;;5147792;27;43587;-63
2022/03/23 00:35:13;;;;;;;6.63;6.10;;;21.60;43.70;;;;;;5148323;27;44043;-63
2022/03/23 00:37:43;;;;;;;6.68;6.07;;;21.60;43.70;;;;;;5130329;27;43993;-63
2022/03/23 00:40:10;;;;;;;6.88;6.32;;;21.60;43.80;;;;;;5130863;27;43568;-62
2022/03/23 00:42:40;;;;;;;6.95;6.30;;;21.50;43.70;;;;;;5148319;27;43477;-62
2022/03/23 00:45:08;;;;;;;6.93;6.22;;;21.50;43.70;;;;;;5147071;27;43797;-62
2022/03/23 00:47:35;;;;;;;7.10;6.50;;;21.50;43.80;;;;;;5147967;27;43496;-62
2022/03/23 00:50:04;;;;;;;6.95;6.35;;;21.50;43.80;;;;;;5147733;27;44258;-62
2022/03/23 00:52:36;;;;;;;7.20;6.50;;;21.50;43.80;;;;;;5129641;27;43516;-63
2022/03/23 00:55:09;;;;;;;6.93;6.32;;;21.50;43.80;;;;;;5129667;27;44662;-62
2022/03/23 00:57:37;;;;;;;6.30;5.80;;;21.40;43.80;;;;;;5148588;27;43391;-63
2022/03/23 01:00:12;;;;;;;6.68;6.07;;;21.40;43.70;;;;;;5148573;27;43468;-62
2022/03/23 01:02:41;;;;;;;7.88;7.20;;;21.40;43.80;;;;;;5148063;27;43506;-62
2022/03/23 01:05:09;;;;;;;7.15;6.45;;;21.40;43.70;;;;;;5129444;27;44759;-62
2022/03/23 01:07:38;;;;;;;7.30;6.70;;;21.40;43.80;;;;;;5148373;27;43771;-63
2022/03/23 01:10:09;;;;;;;7.07;6.47;;;21.40;43.80;;;;;;5148047;27;43503;-63
2022/03/23 01:12:38;;;;;;;7.43;6.82;;;21.40;43.80;;;;;;5148014;27;43492;-63
2022/03/23 01:15:08;;;;;;;7.28;6.68;;;21.30;43.70;;;;;;5148001;27;44693;-63
2022/03/23 01:17:36;;;;;;;7.45;6.80;;;21.30;43.80;;;;;;5142998;27;43758;-63
2022/03/23 01:20:08;;;;;;;7.60;7.00;;;21.30;43.80;;;;;;5155989;27;43438;-63
2022/03/23 01:22:36;;;;;;;7.53;6.93;;;21.30;43.80;;;;;;5129423;27;43520;-62
2022/03/23 01:25:05;;;;;;;7.40;6.72;;;21.30;43.80;;;;;;5129305;27;43532;-63
2022/03/23 01:27:33;;;;;;;7.30;6.70;;;21.30;43.90;;;;;;5148084;27;43874;-62
2022/03/23 01:30:02;;;;;;;7.88;7.28;;;21.30;43.90;;;;;;5145031;27;44068;-63
2022/03/23 01:32:29;;;;;;;7.32;6.72;;;21.30;43.80;;;;;;5147955;27;43536;-63
2022/03/23 01:34:57;;;;;;;7.47;6.80;;;21.20;43.80;;;;;;5129097;27;43811;-63
2022/03/23 01:37:25;;;;;;;7.35;6.75;;;21.20;43.80;;;;;;5129703;27;43976;-63
2022/03/23 01:39:52;;;;;;;8.50;7.70;;;21.20;43.90;;;;;;5148045;27;43378;-62
2022/03/23 01:42:19;;;;;;;7.82;7.13;;;21.20;43.90;;;;;;5147744;27;43520;-63
2022/03/23 01:44:47;;;;;;;8.05;6.97;;;21.20;43.90;;;;;;5146979;27;45318;-63
2022/03/23 01:47:16;;;;;;;7.70;7.10;;;21.10;43.90;;;;;;5128845;27;43772;-63
2022/03/23 01:49:47;;;;;;;7.85;7.20;;;21.10;43.80;;;;;;5147602;27;43413;-63
2022/03/23 01:52:20;;;;;;;7.72;7.03;;;21.20;43.90;;;;;;5129013;27;43588;-63
2022/03/23 01:54:48;;;;;;;7.70;7.00;;;21.10;44.00;;;;;;5147085;27;45813;-63
2022/03/23 01:57:19;;;;;;;8.45;7.65;;;21.10;43.90;;;;;;5128684;27;43468;-63
2022/03/23 01:59:47;;;;;;;7.90;7.13;;;21.10;43.80;;;;;;5130799;27;43425;-63
2022/03/23 02:02:14;;;;;;;8.32;7.63;;;21.10;43.90;;;;;;5128678;27;43508;-63
2022/03/23 02:05:12;;;;;;;8.02;7.32;;;21.00;44.50;;;;;;5136225;27;44070;-63
2022/03/23 02:07:46;;;;;;;7.70;7.03;;;21.00;43.80;;;;;;5128337;27;43440;-62
2022/03/23 02:10:16;;;;;;;8.02;7.32;;;21.00;43.80;;;;;;5146915;27;43564;-63
2022/03/23 02:12:54;;;;;;;7.72;7.07;;;21.00;43.80;;;;;;5130567;27;43521;-63
2022/03/23 02:15:24;;;;;;;8.07;7.38;;;21.00;43.80;;;;;;5128459;27;44952;-63
2022/03/23 02:17:53;;;;;;;7.97;7.28;;;21.00;43.80;;;;;;5147317;27;43462;-62
2022/03/23 02:20:21;;;;;;;7.90;7.30;;;21.00;43.80;;;;;;5128354;27;43583;-63
2022/03/23 02:22:48;;;;;;;7.53;6.82;;;21.00;43.80;;;;;;5128386;27;43564;-63
2022/03/23 02:25:25;;;;;;;8.68;7.88;;;21.00;43.80;;;;;;5128082;27;44032;-63
2022/03/23 02:27:54;;;;;;;7.68;6.97;;;21.00;43.80;;;;;;5147094;27;43706;-63
2022/03/23 02:30:22;;;;;;;7.13;6.60;;;21.00;43.90;;;;;;5146896;27;43546;-62
2022/03/23 02:32:50;;;;;;;7.78;7.13;;;20.90;43.90;;;;;;5146777;27;43618;-63
2022/03/23 02:35:17;;;;;;;7.97;7.28;;;20.90;43.80;;;;;;5146557;27;44062;-63
2022/03/23 02:37:45;;;;;;;7.32;6.72;;;20.90;43.80;;;;;;5146939;27;44142;-63
2022/03/23 02:40:13;;;;;;;7.93;7.22;;;20.90;43.70;;;;;;5146870;27;43517;-63
2022/03/23 02:42:41;;;;;;;8.25;7.47;;;20.90;43.80;;;;;;5146557;27;43446;-63
2022/03/23 02:45:10;;;;;;;8.02;7.22;;;20.90;43.80;;;;;;5146439;27;43966;-63
2022/03/23 02:47:39;;;;;;;7.65;7.05;;;20.90;43.70;;;;;;5146950;27;43693;-63
2022/03/23 02:50:06;;;;;;;7.80;7.10;;;20.90;43.80;;;;;;5146732;27;43530;-63
2022/03/23 02:52:34;;;;;;;7.75;7.05;;;20.90;43.80;;;;;;5146471;27;43453;-63
2022/03/23 03:03:23;;;;;;;7.65;7.05;;;20.80;44.50;;;;;;5144932;27;43516;-63
2022/03/23 03:05:50;;;;;;;8.15;7.38;;;20.80;43.80;;;;;;5145299;27;43966;-63
2022/03/23 03:11:04;;;;;;;7.90;7.20;;;20.70;43.80;;;;;;5135484;27;43561;-63
2022/03/23 03:13:32;;;;;;;7.15;6.55;;;20.70;43.80;;;;;;5145556;27;43466;-63
2022/03/23 03:16:03;;;;;;;7.25;6.65;;;20.70;43.80;;;;;;5146160;27;43784;-63
2022/03/23 03:18:32;;;;;;;7.45;6.85;;;20.70;43.80;;;;;;5145657;27;43682;-63
2022/03/23 03:21:03;;;;;;;8.27;7.57;;;20.70;43.80;;;;;;5154054;27;43511;-63
2022/03/23 03:23:30;;;;;;;6.95;6.43;;;20.70;43.70;;;;;;5146108;27;43545;-63
2022/03/23 03:25:58;;;;;;;6.55;6.00;;;20.70;43.80;;;;;;5145860;27;44133;-63
2022/03/23 03:28:26;;;;;;;6.95;6.35;;;20.70;43.80;;;;;;5145119;27;43491;-63
2022/03/23 03:30:53;;;;;;;6.95;6.35;;;20.70;43.80;;;;;;5145940;27;43401;-63
2022/03/23 03:33:21;;;;;;;7.07;6.47;;;20.60;43.80;;;;;;5127705;27;43473;-62
2022/03/23 03:35:49;;;;;;;7.07;6.45;;;20.60;43.70;;;;;;5127338;27;43797;-63
2022/03/23 03:38:16;;;;;;;7.07;6.47;;;20.60;43.70;;;;;;5146132;27;43439;-63
2022/03/23 03:40:45;;;;;;;6.72;6.13;;;20.60;43.70;;;;;;5146234;27;43392;-63
2022/03/23 03:43:12;;;;;;;6.45;5.95;;;20.60;43.60;;;;;;5145911;27;43478;-63
2022/03/23 03:45:40;;;;;;;7.00;6.40;;;20.60;43.60;;;;;;5145888;27;43615;-63
2022/03/23 03:48:08;;;;;;;6.63;6.13;;;20.60;43.60;;;;;;5145063;27;43853;-63
2022/03/23 03:50:35;;;;;;;6.20;5.70;;;20.60;43.70;;;;;;5145906;27;43345;-63
2022/03/23 03:53:03;;;;;;;7.03;6.43;;;20.60;43.70;;;;;;5145804;27;43655;-63
2022/03/23 03:55:31;;;;;;;7.30;6.60;;;20.60;43.60;;;;;;5144511;27;44852;-63
2022/03/23 03:57:58;;;;;;;7.00;6.30;;;20.50;43.60;;;;;;5145633;27;43854;-64
2022/03/23 04:00:25;;;;;;;7.30;6.70;;;20.50;43.70;;;;;;5145166;27;43445;-63
2022/03/23 04:02:53;;;;;;;7.45;6.75;;;20.60;43.70;;;;;;5144652;27;43540;-63
2022/03/23 04:05:21;;;;;;;7.28;6.32;;;20.50;43.80;;;;;;5144588;27;44103;-63
2022/03/23 04:07:49;;;;;;;7.07;6.47;;;20.50;43.90;;;;;;5148519;27;43771;-62
2022/03/23 04:10:16;;;;;;;6.68;6.18;;;20.50;43.80;;;;;;5148155;27;43428;-63
2022/03/23 04:12:44;;;;;;;7.03;6.43;;;20.50;43.80;;;;;;5148561;27;43506;-63
2022/03/23 04:15:11;;;;;;;7.38;6.78;;;20.50;43.80;;;;;;5147042;27;44027;-63
2022/03/23 04:17:39;;;;;;;7.35;6.75;;;20.50;43.80;;;;;;5148632;27;43429;-63
2022/03/23 04:20:08;;;;;;;7.10;6.50;;;20.50;43.80;;;;;;5149213;27;43448;-62
2022/03/23 04:22:35;;;;;;;5.88;5.47;;;20.50;43.80;;;;;;5148206;27;43595;-63
2022/03/23 04:25:03;;;;;;;6.15;5.65;;;20.40;43.80;;;;;;5144134;27;43798;-63
2022/03/23 04:27:30;;;;;;;6.63;6.10;;;20.40;43.80;;;;;;5148625;27;43465;-63
2022/03/23 04:29:58;;;;;;;6.20;5.70;;;20.40;43.80;;;;;;5148832;27;43791;-63
2022/03/23 04:32:26;;;;;;;7.00;6.40;;;20.40;43.80;;;;;;5147559;27;43481;-63
2022/03/23 04:34:59;;;;;;;7.10;6.50;;;20.40;43.80;;;;;;5147817;27;43817;-63
2022/03/23 04:37:26;;;;;;;7.07;6.47;;;20.40;43.80;;;;;;5148346;27;43559;-63
2022/03/23 04:39:54;;;;;;;6.68;6.07;;;20.40;43.80;;;;;;5148222;27;43397;-63
2022/03/23 04:42:21;;;;;;;6.97;6.38;;;20.30;43.70;;;;;;5148430;27;43611;-62
2022/03/23 04:44:49;;;;;;;7.30;6.70;;;20.30;43.70;;;;;;5147647;27;44060;-62
2022/03/23 04:47:16;;;;;;;7.45;6.85;;;20.40;43.80;;;;;;5148739;27;43486;-63
2022/03/23 04:49:43;;;;;;;7.55;6.85;;;20.30;43.70;;;;;;5148612;27;43950;-63
2022/03/23 04:52:13;;;;;;;6.78;6.18;;;20.30;43.80;;;;;;5148497;27;43599;-62
2022/03/23 04:54:41;;;;;;;7.22;6.63;;;20.30;43.80;;;;;;5148252;27;44047;-63
2022/03/23 04:57:08;;;;;;;7.25;6.65;;;20.30;43.80;;;;;;5148776;27;43674;-63
2022/03/23 04:59:36;;;;;;;6.72;6.22;;;20.30;43.80;;;;;;5148950;27;43504;-63
2022/03/23 05:02:04;;;;;;;6.40;5.80;;;20.30;43.80;;;;;;5148061;27;43536;-63
2022/03/23 05:04:32;;;;;;;6.65;6.05;;;20.30;43.80;;;;;;5148012;27;44705;-63
2022/03/23 05:06:59;;;;;;;6.50;6.00;;;20.20;43.70;;;;;;5148548;27;43813;-62
2022/03/23 05:09:26;;;;;;;6.65;6.15;;;20.20;43.70;;;;;;5141590;27;43399;-64
2022/03/23 05:11:54;;;;;;;6.38;5.88;;;20.20;43.80;;;;;;5148127;27;44062;-63
2022/03/23 05:14:21;;;;;;;6.70;6.10;;;20.20;43.70;;;;;;5147456;27;44037;-63
2022/03/23 05:16:49;;;;;;;6.47;5.97;;;20.20;43.70;;;;;;5147752;27;43453;-63
2022/03/23 05:19:16;;;;;;;6.72;6.13;;;20.20;43.70;;;;;;5152720;27;43416;-63
2022/03/23 05:21:44;;;;;;;6.47;5.88;;;20.20;43.70;;;;;;5150999;27;43609;-63
2022/03/23 05:24:11;;;;;;;6.00;5.50;;;20.20;43.70;;;;;;5146702;27;43792;-62
2022/03/23 05:26:39;;;;;;;5.90;5.40;;;20.20;43.70;;;;;;5146597;27;43456;-63
2022/03/23 05:29:06;;;;;;;6.30;5.80;;;20.20;43.70;;;;;;5147583;27;43454;-63
2022/03/23 05:31:34;;;;;;;6.07;5.57;;;20.20;43.70;;;;;;5147116;27;43490;-63
2022/03/23 05:34:02;;;;;;;6.03;5.53;;;20.10;43.80;;;;;;5146488;27;43998;-63
2022/03/23 05:36:30;;;;;;;7.07;6.40;;;20.10;43.70;;;;;;5145095;27;43732;-63
2022/03/23 05:38:58;;;;;;;5.85;5.38;;;20.10;43.70;;;;;;5147382;27;43385;-63
2022/03/23 05:41:25;;;;;;;5.72;5.32;;;20.10;43.70;;;;;;5128293;27;43628;-62
2022/03/23 05:43:53;;;;;;;5.72;5.22;;;20.10;43.70;;;;;;5145785;27;44995;-63
2022/03/23 05:46:20;;;;;;;6.72;6.13;;;20.10;43.70;;;;;;5147068;27;43501;-63
2022/03/23 05:48:48;;;;;;;6.53;6.03;;;20.10;43.60;;;;;;5148133;27;43516;-63
2022/03/23 05:51:16;;;;;;;6.20;5.70;;;20.10;43.60;;;;;;5146894;27;43505;-63
2022/03/23 05:53:43;;;;;;;6.95;6.25;;;20.10;43.70;;;;;;5145913;27;43752;-63
2022/03/23 05:56:11;;;;;;;6.10;5.60;;;20.10;43.70;;;;;;5147214;27;43436;-62
2022/03/23 05:58:38;;;;;;;6.45;5.85;;;20.00;43.70;;;;;;5147703;27;43404;-63
2022/03/23 06:01:06;;;;;;;6.00;5.47;;;20.00;43.60;;;;;;5147275;27;43476;-63
2022/03/23 06:03:35;;;;;;;6.07;5.57;;;20.00;43.70;;;;;;5147185;27;44846;-63
2022/03/23 06:06:06;;;;;;;6.30;5.80;;;20.00;43.80;;;;;;5147325;27;43715;-62
2022/03/23 06:08:33;;;;;;;6.43;5.82;;;20.00;43.80;;;;;;5147747;27;43426;-63
2022/03/23 06:11:02;;;;;;;5.72;5.30;;;20.00;43.70;;;;;;5126675;27;43601;-63
2022/03/23 06:13:29;;;;;;;6.20;5.70;;;20.00;43.70;;;;;;5147020;27;43796;-63
2022/03/23 06:15:57;;;;;;;5.82;5.32;;;20.00;43.70;;;;;;5147058;27;43990;-62
2022/03/23 06:18:24;;;;;;;6.32;5.72;;;20.00;43.70;;;;;;5146718;27;43998;-63
2022/03/23 06:20:52;;;;;;;5.90;5.40;;;20.00;43.70;;;;;;5147131;27;43447;-62
2022/03/23 06:23:20;;;;;;;6.18;5.68;;;19.90;43.70;;;;;;5144979;27;43956;-63
2022/03/23 06:25:47;;;;;;;6.22;5.72;;;19.90;43.70;;;;;;5146353;27;43550;-62
2022/03/23 06:28:15;;;;;;;5.82;5.32;;;20.00;43.70;;;;;;5145627;27;43370;-63
2022/03/23 06:30:42;;;;;;;6.90;6.30;;;19.90;43.70;;;;;;5146439;27;43504;-62
2022/03/23 06:33:10;;;;;;;5.65;5.18;;;20.00;43.80;;;;;;5144999;27;44086;-63
2022/03/23 06:35:37;;;;;;;6.20;5.60;;;20.00;43.80;;;;;;5146313;27;43487;-63
2022/03/23 06:38:05;;;;;;;6.30;5.80;;;19.90;43.80;;;;;;5146124;27;43460;-63
2022/03/23 06:40:34;;;;;;;5.15;4.75;;;19.90;43.80;;;;;;5146362;27;43444;-63
2022/03/23 06:43:01;;;;;;;5.95;5.45;;;19.90;43.90;;;;;;5145137;27;44997;-62
2022/03/23 06:45:29;;;;;;;5.40;5.00;;;19.90;43.90;;;;;;5146594;27;43927;-63
2022/03/23 06:47:57;;;;;;;5.55;5.10;;;19.90;43.90;;;;;;5146726;27;43409;-63
2022/03/23 06:50:25;;;;;;;5.43;5.03;;;19.90;43.90;;;;;;5146102;27;43512;-63
2022/03/23 06:52:53;;;;;;;6.10;5.60;;;19.90;43.90;;;;;;5145535;27;44728;-63
2022/03/23 06:55:20;;;;;;;5.57;5.07;;;19.90;44.00;;;;;;5145704;27;43443;-63
2022/03/23 06:57:48;;;;;;;5.32;4.90;;;19.90;44.00;;;;;;5146870;27;43477;-63
2022/03/23 07:00:16;;;;;;;5.50;5.10;;;19.90;43.90;;;;;;5146023;27;43466;-62
2022/03/23 07:02:47;;;;;;;5.80;5.30;;;19.90;44.00;;;;;;5144524;27;43976;-63
2022/03/23 07:05:16;;;;;;;5.97;5.47;;;19.90;44.00;;;;;;5145416;27;43572;-62
2022/03/23 07:10:35;;;;;;;5.40;5.00;;;20.00;44.00;;;;;;5103203;27;43538;-62
2022/03/23 07:13:02;;;;;;;5.28;4.88;;;20.00;43.90;;;;;;5146191;27;44724;-63
2022/03/23 07:15:30;;;;;;;5.20;4.80;;;20.00;43.90;;;;;;5126593;27;43678;-61
2022/03/23 07:17:59;;;;;;;5.30;4.90;;;20.00;43.90;;;;;;5145670;27;43518;-62
2022/03/23 07:20:27;;;;;;;5.60;5.10;;;20.00;43.90;;;;;;5152946;27;43497;-62
2022/03/23 07:22:55;;;;;;;5.88;5.38;;;20.00;43.90;;;;;;5145412;27;44050;-62
2022/03/23 07:25:24;;;;;;;5.78;5.18;;;20.00;43.80;;;;;;5145134;27;43424;-62
2022/03/23 07:27:51;;;;;;;4.97;4.57;;;20.10;43.90;;;;;;5144958;27;43494;-62
2022/03/23 07:30:20;;;;;;;5.50;5.10;;;20.00;43.80;;;;;;5145279;27;43466;-62
2022/03/23 07:32:47;;;;;;;5.10;4.70;;;20.10;43.90;;;;;;5144693;27;43747;-62
2022/03/23 07:35:15;;;;;;;4.95;4.55;;;20.10;43.80;;;;;;5126963;27;44009;-62
2022/03/23 07:37:42;;;;;;;5.10;4.70;;;20.10;43.90;;;;;;5143877;27;43425;-61
2022/03/23 07:40:10;;;;;;;5.07;4.68;;;20.10;43.90;;;;;;5144106;27;43567;-63
2022/03/23 07:42:38;;;;;;;4.90;4.53;;;20.10;43.90;;;;;;5126377;27;43801;-62
2022/03/23 07:45:07;;;;;;;4.95;4.55;;;20.20;44.00;;;;;;5145527;27;43754;-63
2022/03/23 07:47:35;;;;;;;4.75;4.35;;;20.10;43.90;;;;;;5145602;27;43484;-62
2022/03/23 07:50:03;;;;;;;4.60;4.30;;;20.10;44.10;;;;;;5145819;27;43539;-62
2022/03/23 07:52:30;;;;;;;5.68;5.15;;;20.10;43.90;;;;;;5145503;27;43786;-62
2022/03/23 07:55:00;;;;;;;6.70;5.03;;;20.20;44.10;;;;;;5145365;27;43770;-62
2022/03/23 07:57:27;;;;;;;5.53;5.03;;;20.20;44.20;;;;;;5142596;27;43462;-62
2022/03/23 07:59:55;;;;;;;5.35;4.85;;;20.20;44.10;;;;;;5145517;27;43500;-62
2022/03/23 08:02:24;;;;;;;6.15;5.20;;;20.20;44.00;;;;;;5145174;27;45805;-62
2022/03/23 08:04:52;;;;;;;5.85;5.25;;;20.30;44.20;;;;;;5137626;27;43934;-63
2022/03/23 08:07:20;;;;;;;5.60;5.10;;;20.30;44.10;;;;;;5142365;27;43542;-62
2022/03/23 08:09:50;;;;;;;5.30;4.90;;;20.50;44.20;;;;;;5144248;27;43908;-62
2022/03/23 08:12:18;;;;;;;5.43;4.93;;;20.50;44.00;;;;;;5144222;27;43807;-62
2022/03/23 08:14:46;;;;;;;5.43;4.93;;;20.70;44.00;;;;;;5132353;27;43665;-63
2022/03/23 08:17:21;;;;;;;5.38;4.88;;;20.80;44.00;;;;;;5143303;27;43476;-64
2022/03/23 08:20:32;;;;;;;5.90;5.38;;;20.90;43.80;;;;;;5146778;27;43535;-63
2022/03/23 08:22:36;;;;;;;6.13;5.40;;;21.10;43.70;;;;;;5143440;27;44726;-64
2022/03/23 08:25:05;;;;;;;6.28;5.78;;;21.30;43.70;;;;;;5142283;27;43441;-63
2022/03/23 08:27:33;;;;;;;8.18;5.93;;;21.50;43.50;;;;;;5140578;27;43560;-63
2022/03/23 08:30:00;;;;;;;6.20;5.70;;;21.70;43.60;;;;;;5144866;27;43525;-63
2022/03/23 08:32:28;;;;;;;8.52;5.75;;;21.80;43.10;;;;;;5143709;27;43543;-63
2022/03/23 08:34:55;;;;;;;7.10;5.43;;;22.00;42.90;;;;;;5143459;27;44815;-62
2022/03/23 08:37:23;;;;;;;5.07;4.68;;;22.20;42.80;;;;;;5141959;27;43470;-63
2022/03/23 08:39:50;;;;;;;6.03;5.47;;;22.30;42.60;;;;;;5144066;27;43438;-64
2022/03/23 08:42:18;;;;;;;5.70;5.25;;;22.40;42.40;;;;;;5124587;27;44671;-63
2022/03/23 08:44:45;;;;;;;5.55;5.05;;;22.60;42.40;;;;;;5143155;27;44006;-64
2022/03/23 08:47:13;;;;;;;5.72;5.22;;;22.70;42.30;;;;;;5143891;27;43473;-63
2022/03/23 08:49:40;;;;;;;5.53;5.03;;;22.90;42.30;;;;;;5134932;27;43438;-63
2022/03/23 08:52:08;;;;;;;5.07;4.57;;;23.00;42.10;;;;;;5144008;27;43792;-63
2022/03/23 08:54:36;;;;;;;5.25;4.85;;;23.20;42.00;;;;;;5145763;27;43685;-63
2022/03/23 08:57:04;;;;;;;5.47;4.93;;;23.30;41.80;;;;;;5147345;27;43470;-63
2022/03/23 08:59:32;;;;;;;5.47;4.97;;;23.40;41.60;;;;;;5146959;27;43633;-64
2022/03/23 09:01:59;;;;;;;7.57;4.70;;;23.50;41.50;;;;;;5128593;27;46044;-63
2022/03/23 09:04:27;;;;;;;5.30;4.80;;;23.70;41.80;;;;;;5145241;27;43699;-62
2022/03/23 09:06:54;;;;;;;15.32;4.88;;;23.80;41.80;;;;;;5146528;27;43537;-63
2022/03/23 09:09:22;;;;;;;7.40;5.35;;;23.90;41.80;;;;;;5147381;27;43470;-65
2022/03/23 09:11:49;;;;;;;6.72;4.63;;;24.00;41.40;;;;;;5146271;27;44051;-62
2022/03/23 09:14:17;;;;;;;9.30;4.78;;;24.10;41.40;;;;;;5124999;27;43523;-64
2022/03/23 09:16:44;;;;;;;5.68;4.90;;;24.30;41.50;;;;;;5135773;27;43612;-62
2022/03/23 09:19:14;;;;;;;7.38;4.75;;;24.50;41.30;;;;;;5142947;27;43504;-64
2022/03/23 09:21:42;;;;;;;6.60;5.00;;;24.70;41.50;;;;;;5142820;27;44115;-63
2022/03/23 09:24:11;;;;;;;7.88;5.57;;;24.80;41.30;;;;;;5144098;27;43525;-63
2022/03/23 09:26:39;;;;;;;6.50;5.90;;;25.00;41.20;;;;;;5130210;27;43416;-62
2022/03/23 09:29:07;;;;;;;7.30;6.00;;;25.20;40.80;;;;;;5146883;27;43485;-65
2022/03/23 09:31:35;;;;;;;8.38;6.30;;;25.40;40.70;;;;;;5146189;27;44665;-63
2022/03/23 09:34:03;;;;;;;6.60;5.97;;;25.60;40.40;;;;;;5145072;27;43449;-63
2022/03/23 09:39:18;;;;;;;8.38;6.38;;;25.90;39.80;;;;;;5146047;27;43600;-63
2022/03/23 09:41:48;;;;;;;9.07;6.50;;;26.10;39.60;;;;;;5143256;27;44016;-63
2022/03/23 09:44:17;;;;;;;8.57;6.85;;;26.10;39.50;;;;;;5126079;27;43618;-62
2022/03/23 09:46:44;;;;;;;10.32;6.95;;;26.20;39.50;;;;;;5146061;27;43562;-62
2022/03/23 09:49:13;;;;;;;8.45;6.13;;;26.30;39.00;;;;;;5145922;27;43501;-63
2022/03/23 09:51:42;;;;;;;7.15;6.55;;;26.30;39.10;;;;;;5143588;27;43793;-62
2022/03/23 09:54:10;;;;;;;7.22;6.40;;;26.40;39.20;;;;;;5145515;27;43503;-62
2022/03/23 09:56:37;;;;;;;7.18;6.35;;;26.40;39.10;;;;;;5146123;27;43424;-62
2022/03/23 09:59:06;;;;;;;6.80;6.20;;;26.30;38.90;;;;;;5146333;27;43529;-62
2022/03/23 10:01:46;;;;;;;7.20;6.50;;;26.40;39.10;;;;;;5140020;27;44700;-63
2022/03/23 10:04:20;;;;;;;6.40;5.90;;;26.40;39.20;;;;;;5141866;27;43425;-63
2022/03/23 10:07:04;;;;;;;6.85;6.05;;;26.40;39.40;;;;;;5146718;27;43444;-62
2022/03/23 10:09:49;;;;;;;7.05;5.80;;;26.30;39.30;;;;;;5144298;27;43403;-62
2022/03/23 10:12:44;;;;;;;6.00;5.50;;;26.20;39.40;;;;;;5146022;27;45032;-63
2022/03/23 10:15:40;;;;;;;6.97;5.50;;;26.20;39.40;;;;;;5142667;27;43447;-62
2022/03/23 10:18:37;;;;;;;6.22;5.72;;;26.20;39.40;;;;;;5136925;27;43528;-63
2022/03/23 10:21:07;;;;;;;5.95;5.30;;;26.10;39.40;;;;;;5145349;27;43842;-63
2022/03/23 10:23:35;;;;;;;5.57;5.18;;;26.10;39.50;;;;;;5145445;27;45054;-63
2022/03/23 10:26:14;;;;;;;5.53;5.03;;;26.00;39.60;;;;;;5146349;27;43466;-63
2022/03/23 10:28:41;;;;;;;5.20;4.80;;;26.00;39.60;;;;;;5146298;27;43435;-63
2022/03/23 10:31:24;;;;;;;4.93;4.53;;;25.90;39.60;;;;;;5145791;27;44137;-63
2022/03/23 10:34:07;;;;;;;5.93;5.22;;;25.90;40.30;;;;;;5145049;27;44007;-63
2022/03/23 10:36:52;;;;;;;4.90;4.50;;;25.90;39.80;;;;;;5143364;27;44033;-64
2022/03/23 10:39:27;;;;;;;4.93;4.32;;;25.80;39.90;;;;;;5145326;27;43518;-63
2022/03/23 10:42:23;;;;;;;5.57;4.47;;;25.80;40.00;;;;;;5142014;27;43465;-63
2022/03/23 10:45:12;;;;;;;5.22;4.72;;;25.80;40.10;;;;;;5142081;27;43822;-63
2022/03/23 10:47:41;;;;;;;5.13;4.63;;;25.70;40.20;;;;;;5145926;27;43556;-63
2022/03/23 10:50:13;;;;;;;5.00;4.57;;;25.70;40.20;;;;;;5129654;27;43453;-63
2022/03/23 10:52:52;;;;;;;4.47;4.07;;;25.70;40.30;;;;;;5143598;27;43540;-61
2022/03/23 10:55:21;;;;;;;6.30;4.30;;;25.70;40.30;;;;;;5145010;27;44156;-62
2022/03/23 10:57:52;;;;;;;4.53;4.13;;;25.70;40.40;;;;;;5145373;27;44002;-61
2022/03/23 11:00:38;;;;;;;4.68;4.28;;;25.60;40.30;;;;;;5145690;27;43462;-62
2022/03/23 11:03:09;;;;;;;4.82;4.40;;;25.60;40.10;;;;;;5123931;27;43502;-64
2022/03/23 11:05:46;;;;;;;4.63;4.22;;;25.60;40.30;;;;;;5126384;27;44909;-62
2022/03/23 11:08:21;;;;;;;5.00;4.20;;;25.60;40.40;;;;;;5144880;27;43934;-61
2022/03/23 11:16:38;;;;;;;6.95;6.28;;;25.50;38.70;;;;;;5131229;27;44053;-61
2022/03/23 11:19:11;;;;;;;6.72;6.03;;;25.40;38.00;;;;;;5136079;27;43985;-62
2022/03/23 11:21:57;;;;;;;8.32;6.13;;;25.40;38.30;;;;;;5145194;27;43416;-62
2022/03/23 11:24:27;;;;;;;7.97;5.97;;;25.40;38.60;;;;;;5143775;27;43592;-62
2022/03/23 11:26:55;;;;;;;8.37;6.20;;;25.40;38.80;;;;;;5126781;27;43903;-62
2022/03/23 11:29:23;;;;;;;9.40;6.40;;;25.30;38.90;;;;;;5144975;27;43910;-62
2022/03/23 11:31:53;;;;;;;9.15;6.72;;;25.30;39.00;;;;;;5145184;27;43497;-62
2022/03/23 11:34:24;;;;;;;7.90;5.90;;;25.30;39.80;;;;;;5143747;27;43498;-62
2022/03/23 11:36:54;;;;;;;8.63;6.05;;;25.30;39.20;;;;;;5144934;27;43873;-62
2022/03/23 11:39:22;;;;;;;8.27;5.70;;;25.30;39.40;;;;;;5145291;27;43962;-62
2022/03/23 11:41:53;;;;;;;9.48;5.43;;;25.30;39.50;;;;;;5145253;27;43555;-62
2022/03/23 11:44:23;;;;;;;;;;;25.30;39.60;;;;;;5144721;27;43536;-62
2022/03/23 11:46:53;;;;;;;7.75;5.72;;;25.30;39.50;;;;;;5145379;27;44051;-62
2022/03/23 11:49:34;;;;;;;6.10;5.50;;;25.30;39.50;;;;;;5144767;27;43699;-62
2022/03/23 11:52:31;;;;;;;8.68;5.68;;;25.30;39.80;;;;;;5144878;27;43487;-62
2022/03/23 11:55:37;;;;;;;6.10;5.30;;;25.20;39.60;;;;;;5132746;27;43824;-62
2022/03/23 11:58:25;;;;;;;7.65;5.30;;;25.30;39.60;;;;;;5140346;27;43942;-62
2022/03/23 12:00:55;;;;;;;6.45;4.95;;;25.20;39.70;;;;;;5141897;27;43471;-62
2022/03/23 12:03:42;;;;;;;8.00;5.05;;;25.30;39.80;;;;;;5142583;27;43499;-63
2022/03/23 12:06:14;;;;;;;10.45;5.60;;;25.30;39.90;;;;;;5141653;27;43502;-62
2022/03/23 12:08:50;;;;;;;8.05;4.47;;;25.30;39.90;;;;;;5141689;27;43889;-61
2022/03/23 12:11:34;;;;;;;7.43;4.72;;;25.30;40.00;;;;;;5143437;27;43601;-62
2022/03/23 12:14:05;;;;;;;7.47;4.88;;;25.30;39.90;;;;;;5141508;27;43455;-62
2022/03/23 12:16:53;;;;;;;6.88;4.53;;;25.30;39.90;;;;;;5144955;27;43512;-62
2022/03/23 12:20:06;;;;;;;6.05;4.13;;;25.40;40.00;;;;;;5136627;27;44147;-62
2022/03/23 12:22:33;;;;;;;6.50;4.43;;;25.40;40.00;;;;;;5125819;27;43974;-62
2022/03/23 12:25:24;;;;;;;6.63;4.80;;;25.40;40.00;;;;;;5129007;27;43474;-62
2022/03/23 12:27:55;;;;;;;5.07;4.13;;;25.30;40.00;;;;;;5145667;27;43549;-62
2022/03/23 12:30:25;;;;;;;6.35;4.40;;;25.40;40.00;;;;;;5147814;27;44973;-62
2022/03/23 12:33:00;;;;;;;6.53;4.32;;;25.40;40.00;;;;;;5147808;27;44071;-62
2022/03/23 12:35:35;;;;;;;5.75;4.15;;;25.40;40.00;;;;;;5127398;27;43464;-62
2022/03/23 12:38:15;;;;;;;6.22;4.40;;;25.40;40.00;;;;;;5147805;27;43498;-62
2022/03/23 12:40:45;;;;;;;6.10;4.20;;;25.40;40.00;;;;;;5146592;27;44861;-62
2022/03/23 12:43:43;;;;;;;6.43;4.10;;;25.40;40.00;;;;;;5130844;27;43461;-62
2022/03/23 12:46:20;;;;;;;5.05;3.90;;;25.40;40.00;;;;;;5144180;27;43580;-62
2022/03/23 12:57:50;;;;;;;4.78;3.80;;;25.40;40.20;;;;;;5144355;27;43510;-63
2022/03/23 13:00:27;;;;;;;4.88;3.88;;;25.50;40.20;;;;;;5140595;27;43512;-62
2022/03/23 13:03:07;;;;;;;5.68;4.00;;;25.50;40.30;;;;;;5146945;27;44318;-63
2022/03/23 13:05:38;;;;;;;6.13;3.57;;;25.50;40.30;;;;;;5146216;27;43546;-63
2022/03/23 13:08:38;;;;;;;5.95;4.03;;;25.50;40.30;;;;;;5147483;27;44108;-63
2022/03/23 13:11:07;;;;;;;6.40;3.33;;;25.60;40.40;;;;;;5124409;27;43575;-62
2022/03/23 13:13:40;;;;;;;4.90;3.70;;;25.50;40.30;;;;;;5128618;27;44030;-63
2022/03/23 13:16:12;;;;;;;4.72;3.53;;;25.60;40.40;;;;;;5147024;27;43559;-62
2022/03/23 13:18:41;;;;;;;5.65;3.50;;;25.60;40.50;;;;;;5141299;27;43836;-62
2022/03/23 13:21:15;;;;;;;4.35;3.30;;;25.60;40.40;;;;;;5135397;27;43671;-63
2022/03/23 13:23:45;;;;;;;4.60;3.55;;;25.60;40.50;;;;;;5127288;27;44052;-63
2022/03/23 13:26:24;;;;;;;5.05;3.08;;;25.60;40.40;;;;;;5145982;27;43412;-62
2022/03/23 13:29:00;;;;;;;6.10;3.42;;;25.60;40.40;;;;;;5131306;27;44036;-63
2022/03/23 13:31:31;;;;;;;3.67;3.30;;;25.60;40.30;;;;;;5143700;27;44141;-63
2022/03/23 13:34:01;;;;;;;5.10;3.70;;;25.60;40.40;;;;;;5142423;27;43749;-62
2022/03/23 13:36:29;;;;;;;3.53;2.90;;;25.70;40.50;;;;;;5146757;27;44943;-63